createdAt,value
2022-09-20T00:01:13.716Z,73.60
2022-09-20T00:03:42.691Z,73.50
2022-09-20T00:06:12.574Z,73.30
2022-09-20T00:08:40.532Z,73.60
2022-09-20T00:11:15.807Z,73.80
2022-09-20T00:13:44.252Z,73.80
2022-09-20T00:16:14.010Z,73.30
2022-09-20T00:18:41.147Z,73.40
2022-09-20T00:21:12.109Z,73.80
2022-09-20T00:23:38.820Z,73.40
2022-09-20T00:26:05.525Z,73.10
2022-09-20T00:28:33.180Z,73.00
2022-09-20T00:30:59.955Z,72.90
2022-09-20T00:33:49.489Z,73.00
2022-09-20T00:36:16.517Z,73.00
2022-09-20T00:38:43.218Z,73.00
2022-09-20T00:41:10.305Z,73.30
2022-09-20T00:43:47.457Z,73.20
2022-09-20T00:46:23.019Z,73.20
2022-09-20T00:48:52.976Z,73.40
2022-09-20T00:51:28.575Z,73.50
2022-09-20T00:53:57.749Z,73.40
2022-09-20T00:56:37.162Z,73.40
2022-09-20T00:59:08.492Z,73.30
2022-09-20T01:01:36.342Z,73.30
2022-09-20T01:04:03.854Z,73.20
2022-09-20T01:06:32.450Z,73.20
2022-09-20T01:09:02.961Z,73.10
2022-09-20T01:11:30.969Z,73.00
2022-09-20T01:13:58.108Z,73.10
2022-09-20T01:16:26.839Z,73.40
2022-09-20T01:18:57.056Z,73.50
2022-09-20T01:21:24.887Z,73.20
2022-09-20T01:24:09.602Z,73.30
2022-09-20T01:27:03.858Z,73.30
2022-09-20T01:29:52.157Z,73.40
2022-09-20T01:32:23.571Z,73.50
2022-09-20T01:34:57.427Z,73.90
2022-09-20T01:38:02.905Z,73.90
2022-09-20T01:40:48.155Z,74.60
2022-09-20T01:43:32.817Z,74.10
2022-09-20T01:46:29.987Z,73.80
2022-09-20T01:49:21.036Z,73.60
2022-09-20T01:51:59.339Z,73.60
2022-09-20T01:54:52.168Z,73.30
2022-09-20T01:57:41.249Z,73.40
2022-09-20T02:00:19.878Z,73.20
2022-09-20T02:02:49.235Z,73.40
2022-09-20T02:05:53.465Z,73.10
2022-09-20T02:08:50.999Z,73.10
2022-09-20T02:11:19.960Z,73.10
2022-09-20T02:14:08.786Z,73.60
2022-09-20T02:16:48.338Z,74.20
2022-09-20T02:19:34.144Z,73.80
2022-09-20T02:22:48.818Z,74.20
2022-09-20T02:25:26.219Z,74.60
2022-09-20T02:28:08.018Z,76.10
2022-09-20T02:30:58.991Z,75.60
2022-09-20T02:34:00.878Z,75.50
2022-09-20T02:36:54.536Z,75.50
2022-09-20T02:39:28.327Z,75.20
2022-09-20T02:42:08.088Z,75.00
2022-09-20T02:45:05.303Z,74.60
2022-09-20T02:47:42.385Z,74.90
2022-09-20T02:50:18.102Z,74.80
2022-09-20T02:53:11.172Z,75.30
2022-09-20T02:56:01.945Z,75.90
2022-09-20T02:59:03.440Z,76.00
2022-09-20T03:01:38.982Z,75.30
2022-09-20T03:04:47.695Z,75.20
2022-09-20T03:07:49.384Z,75.10
2022-09-20T03:10:20.467Z,74.90
2022-09-20T03:12:47.014Z,75.10
2022-09-20T03:15:45.287Z,75.00
2022-09-20T03:18:16.719Z,75.50
2022-09-20T03:21:03.525Z,75.90
2022-09-20T03:24:13.004Z,76.70
2022-09-20T03:27:16.366Z,75.80
2022-09-20T03:30:01.346Z,75.40
2022-09-20T03:32:58.023Z,75.30
2022-09-20T03:35:39.013Z,75.80
2022-09-20T03:38:11.469Z,75.20
2022-09-20T03:41:02.895Z,75.40
2022-09-20T03:43:57.575Z,75.20
2022-09-20T03:46:29.292Z,76.00
2022-09-20T03:49:02.838Z,75.60
2022-09-20T03:51:45.274Z,75.40
2022-09-20T03:54:36.639Z,75.40
2022-09-20T03:57:15.787Z,75.50
2022-09-20T03:59:57.239Z,75.60
2022-09-20T04:03:00.633Z,76.10
2022-09-20T04:05:45.557Z,75.80
2022-09-20T04:08:43.080Z,75.60
2022-09-20T04:11:44.125Z,76.30
2022-09-20T04:14:38.257Z,76.80
2022-09-20T04:17:20.126Z,77.20
2022-09-20T04:20:07.616Z,76.10
2022-09-20T04:22:34.770Z,75.90
2022-09-20T04:25:13.283Z,75.40
2022-09-20T04:27:50.403Z,75.30
2022-09-20T04:30:20.352Z,75.30
2022-09-20T04:33:14.881Z,75.10
2022-09-20T04:36:21.517Z,75.00
2022-09-20T04:39:05.912Z,75.20
2022-09-20T04:41:51.226Z,75.00
2022-09-20T04:44:35.380Z,75.20
2022-09-20T04:47:02.702Z,74.80
2022-09-20T04:49:53.619Z,74.60
2022-09-20T04:52:44.787Z,74.40
2022-09-20T04:55:45.992Z,74.40
2022-09-20T04:58:47.873Z,74.30
2022-09-20T05:01:51.697Z,74.30
2022-09-20T05:04:38.209Z,74.50
2022-09-20T05:07:26.318Z,74.10
2022-09-20T05:10:19.139Z,74.00
2022-09-20T05:13:00.970Z,74.00
2022-09-20T05:15:36.278Z,74.20
2022-09-20T05:18:10.837Z,74.00
2022-09-20T05:21:04.729Z,73.90
2022-09-20T05:23:40.185Z,73.80
2022-09-20T05:26:14.757Z,74.10
2022-09-20T05:28:49.500Z,75.50
2022-09-20T05:31:40.254Z,76.60
2022-09-20T05:34:31.631Z,77.60
2022-09-20T05:37:32.059Z,77.20
2022-09-20T05:40:18.378Z,76.20
2022-09-20T05:43:11.320Z,76.30
2022-09-20T05:45:43.791Z,76.60
2022-09-20T05:48:32.335Z,76.00
2022-09-20T05:51:06.572Z,75.90
2022-09-20T05:53:52.379Z,75.60
2022-09-20T05:56:43.019Z,75.30
2022-09-20T05:59:38.051Z,75.40
2022-09-20T06:02:28.082Z,75.00
2022-09-20T06:05:03.591Z,75.00
2022-09-20T06:07:52.575Z,74.80
2022-09-20T06:10:39.668Z,74.80
2022-09-20T06:13:43.307Z,74.70
2022-09-20T06:16:17.733Z,74.70
2022-09-20T06:18:57.211Z,74.70
2022-09-20T06:21:49.881Z,75.00
2022-09-20T06:24:44.397Z,75.90
2022-09-20T06:27:15.506Z,76.10
2022-09-20T06:29:48.368Z,75.90
2022-09-20T06:32:18.986Z,76.20
2022-09-20T06:34:46.732Z,76.10
2022-09-20T06:37:48.578Z,76.00
2022-09-20T06:41:19.814Z,76.90
2022-09-20T06:43:48.396Z,76.30
2022-09-20T06:46:15.981Z,78.40
2022-09-20T06:48:42.612Z,77.50
2022-09-20T06:51:09.609Z,79.50
2022-09-20T06:53:40.192Z,78.10
2022-09-20T06:56:14.414Z,79.00
2022-09-20T06:58:41.011Z,79.60
2022-09-20T07:01:07.639Z,80.30
2022-09-20T07:03:34.226Z,80.80
2022-09-20T07:06:01.041Z,80.00
2022-09-20T07:08:27.864Z,79.60
2022-09-20T07:10:54.556Z,80.50
2022-09-20T07:13:21.425Z,79.20
2022-09-20T07:15:48.317Z,82.20
2022-09-20T07:18:14.974Z,83.10
2022-09-20T07:20:41.822Z,83.30
2022-09-20T07:23:08.470Z,83.90
2022-09-20T07:25:36.593Z,83.60
2022-09-20T07:28:03.348Z,84.50
2022-09-20T07:30:29.978Z,84.10
2022-09-20T07:32:56.605Z,83.20
2022-09-20T07:35:23.365Z,81.80
2022-09-20T07:37:56.700Z,81.50
2022-09-20T07:40:23.472Z,81.50
2022-09-20T07:42:53.081Z,83.20
2022-09-20T07:45:23.936Z,84.00
2022-09-20T07:47:50.591Z,83.10
2022-09-20T07:50:17.306Z,83.50
2022-09-20T07:52:44.077Z,82.20
2022-09-20T07:55:10.843Z,82.00
2022-09-20T07:57:38.451Z,82.00
2022-09-20T08:00:08.659Z,82.70
2022-09-20T08:02:36.390Z,82.20
2022-09-20T08:05:04.872Z,85.00
2022-09-20T08:07:31.479Z,85.90
2022-09-20T08:09:58.078Z,85.60
2022-09-20T08:15:12.129Z,86.40
2022-09-20T08:17:40.233Z,87.10
2022-09-20T08:20:07.722Z,85.60
2022-09-20T08:22:34.797Z,85.60
2022-09-20T08:25:01.410Z,84.80
2022-09-20T08:27:28.077Z,83.10
2022-09-20T08:29:57.219Z,83.00
2022-09-20T08:32:23.856Z,83.70
2022-09-20T08:34:50.455Z,82.90
2022-09-20T08:37:17.110Z,82.90
2022-09-20T08:40:01.179Z,84.30
2022-09-20T08:42:36.754Z,83.10
2022-09-20T08:45:22.293Z,82.90
2022-09-20T08:48:00.327Z,82.30
2022-09-20T08:50:29.793Z,82.00
2022-09-20T08:53:04.825Z,81.20
2022-09-20T08:55:39.988Z,81.00
2022-09-20T08:58:10.781Z,80.90
2022-09-20T09:00:39.107Z,80.70
2022-09-20T09:03:14.292Z,81.00
2022-09-20T09:05:47.400Z,80.50
2022-09-20T09:08:38.512Z,80.20
2022-09-20T09:11:14.184Z,80.00
2022-09-20T09:13:52.956Z,79.80
2022-09-20T09:16:25.740Z,79.50
2022-09-20T09:18:56.882Z,79.50
2022-09-20T09:21:29.968Z,79.10
2022-09-20T09:24:12.682Z,78.90
2022-09-20T09:26:41.182Z,79.00
2022-09-20T09:29:09.018Z,79.20
2022-09-20T09:31:37.226Z,79.00
2022-09-20T09:34:04.522Z,78.70
2022-09-20T09:36:33.231Z,78.20
2022-09-20T09:39:23.116Z,78.30
2022-09-20T09:41:51.005Z,77.80
2022-09-20T09:44:27.618Z,77.70
2022-09-20T09:46:55.776Z,77.40
2022-09-20T09:49:27.459Z,77.50
2022-09-20T09:52:14.463Z,76.80
2022-09-20T09:54:52.784Z,76.40
2022-09-20T09:57:41.383Z,75.90
2022-09-20T10:00:18.669Z,75.70
2022-09-20T10:03:15.373Z,75.90
2022-09-20T10:05:48.210Z,75.50
2022-09-20T10:08:57.389Z,75.70
2022-09-20T10:11:47.409Z,76.00
2022-09-20T10:14:29.565Z,76.30
2022-09-20T10:17:14.971Z,76.00
2022-09-20T10:20:02.836Z,75.70
2022-09-20T10:23:21.716Z,75.50
2022-09-20T10:25:59.547Z,74.60
2022-09-20T10:28:48.289Z,73.00
2022-09-20T10:31:35.640Z,71.70
2022-09-20T10:34:30.970Z,72.00
2022-09-20T10:37:00.305Z,71.10
2022-09-20T10:39:30.222Z,72.10
2022-09-20T10:42:34.444Z,72.20
2022-09-20T10:45:43.906Z,71.80
2022-09-20T10:48:18.201Z,69.80
2022-09-20T10:50:57.611Z,69.10
2022-09-20T10:53:58.982Z,68.80
2022-09-20T10:56:43.070Z,68.30
2022-09-20T10:59:38.142Z,67.50
2022-09-20T11:02:24.882Z,66.90
2022-09-20T11:05:18.322Z,67.20
2022-09-20T11:08:11.880Z,66.80
2022-09-20T11:10:54.511Z,66.50
2022-09-20T11:13:26.702Z,66.90
2022-09-20T11:16:23.208Z,67.40
2022-09-20T11:19:11.192Z,66.70
2022-09-20T11:21:44.741Z,66.20
2022-09-20T11:24:47.879Z,65.60
2022-09-20T11:27:29.591Z,65.80
2022-09-20T11:30:02.642Z,67.50
2022-09-20T11:32:39.100Z,68.20
2022-09-20T11:35:11.489Z,68.30
2022-09-20T11:37:46.485Z,68.70
2022-09-20T11:40:24.897Z,68.80
2022-09-20T11:42:52.816Z,68.30
2022-09-20T11:45:23.984Z,64.40
2022-09-20T11:47:59.171Z,66.10
2022-09-20T11:50:47.478Z,67.60
2022-09-20T11:53:41.962Z,67.00
2022-09-20T11:56:20.102Z,63.30
2022-09-20T11:58:55.834Z,61.90
2022-09-20T12:01:33.006Z,63.30
2022-09-20T12:04:31.128Z,61.20
2022-09-20T12:07:22.864Z,60.70
2022-09-20T12:10:08.667Z,63.00
2022-09-20T12:12:46.891Z,63.10
2022-09-20T12:15:33.047Z,63.10
2022-09-20T12:17:59.627Z,59.50
2022-09-20T12:20:35.472Z,60.90
2022-09-20T12:23:45.212Z,63.50
2022-09-20T12:26:21.441Z,61.70
2022-09-20T12:28:55.115Z,64.30
2022-09-20T12:31:21.918Z,63.10
2022-09-20T12:34:05.615Z,59.40
2022-09-20T12:36:36.050Z,57.70
2022-09-20T12:39:30.013Z,60.20
2022-09-20T12:42:12.501Z,58.10
2022-09-20T12:45:07.224Z,60.20
2022-09-20T12:47:36.554Z,59.80
2022-09-20T12:50:33.307Z,60.60
2022-09-20T12:53:07.107Z,59.60
2022-09-20T12:55:43.805Z,59.00
2022-09-20T12:58:14.018Z,56.90
2022-09-20T13:00:57.904Z,56.90
2022-09-20T13:03:37.799Z,58.90
2022-09-20T13:06:09.489Z,59.40
2022-09-20T13:08:52.000Z,58.10
2022-09-20T13:11:32.105Z,55.70
2022-09-20T13:14:05.431Z,56.70
2022-09-20T13:16:37.695Z,56.50
2022-09-20T13:19:12.007Z,56.00
2022-09-20T13:21:42.263Z,56.20
2022-09-20T13:24:15.834Z,56.70
2022-09-20T13:26:46.102Z,56.20
2022-09-20T13:29:27.401Z,55.40
2022-09-20T13:31:56.328Z,55.20
2022-09-20T13:34:25.692Z,55.70
2022-09-20T13:36:58.091Z,54.90
2022-09-20T13:39:39.363Z,55.00
2022-09-20T13:42:12.111Z,55.40
2022-09-20T13:44:39.432Z,56.00
2022-09-20T13:47:43.230Z,56.60
2022-09-20T13:50:28.640Z,55.90
2022-09-20T13:52:57.982Z,54.40
2022-09-20T13:55:33.220Z,55.30
2022-09-20T13:58:03.945Z,55.90
2022-09-20T14:00:32.148Z,55.30
2022-09-20T14:02:59.330Z,55.80
2022-09-20T14:05:29.223Z,54.50
2022-09-20T14:07:57.581Z,54.00
2022-09-20T14:10:29.271Z,54.60
2022-09-20T14:12:56.633Z,54.10
2022-09-20T14:15:23.825Z,53.20
2022-09-20T14:17:53.231Z,54.10
2022-09-20T14:20:20.047Z,53.70
2022-09-20T14:22:46.901Z,54.50
2022-09-20T14:25:13.512Z,54.40
2022-09-20T14:27:40.858Z,54.70
2022-09-20T14:30:30.165Z,54.20
2022-09-20T14:32:57.812Z,54.20
2022-09-20T14:35:24.536Z,53.60
2022-09-20T14:37:52.555Z,53.30
2022-09-20T14:40:40.357Z,53.20
2022-09-20T14:43:17.605Z,53.10
2022-09-20T14:45:54.187Z,52.90
2022-09-20T14:48:21.352Z,53.20
2022-09-20T14:51:22.106Z,53.80
2022-09-20T14:54:13.543Z,53.10
2022-09-20T14:56:47.676Z,54.00
2022-09-20T14:59:17.274Z,52.80
2022-09-20T15:02:12.587Z,51.80
2022-09-20T15:04:41.985Z,51.50
2022-09-20T15:07:11.707Z,50.70
2022-09-20T15:09:40.782Z,50.50
2022-09-20T15:12:19.040Z,50.60
2022-09-20T15:14:46.593Z,50.50
2022-09-20T15:17:16.511Z,51.30
2022-09-20T15:19:43.232Z,51.50
2022-09-20T15:22:12.647Z,52.50
2022-09-20T15:24:39.780Z,51.50
2022-09-20T15:27:06.478Z,51.90
2022-09-20T15:29:33.459Z,51.60
2022-09-20T15:32:00.215Z,52.50
2022-09-20T15:34:27.028Z,52.10
2022-09-20T15:36:54.637Z,51.50
2022-09-20T15:39:22.298Z,52.40
2022-09-20T15:41:52.464Z,52.00
2022-09-20T15:44:19.861Z,52.40
2022-09-20T15:46:48.182Z,53.00
2022-09-20T15:49:14.797Z,53.10
2022-09-20T15:51:41.707Z,54.20
2022-09-20T15:54:12.230Z,53.40
2022-09-20T15:56:41.631Z,53.20
2022-09-20T15:59:10.954Z,53.10
2022-09-20T16:01:39.870Z,53.20
2022-09-20T16:04:09.902Z,53.50
2022-09-20T16:06:37.787Z,53.80
2022-09-20T16:09:05.399Z,53.60
2022-09-20T16:11:32.307Z,53.50
2022-09-20T16:14:00.335Z,53.90
2022-09-20T16:16:29.162Z,53.20
2022-09-20T16:19:15.454Z,54.30
2022-09-20T16:21:43.770Z,54.30
2022-09-20T16:24:13.966Z,54.00
2022-09-20T16:26:41.094Z,53.70
2022-09-20T16:29:07.892Z,53.70
2022-09-20T16:31:41.458Z,54.30
2022-09-20T16:34:14.020Z,54.20
2022-09-20T16:36:42.242Z,54.60
2022-09-20T16:39:09.522Z,55.00
2022-09-20T16:41:37.929Z,55.10
2022-09-20T16:44:04.867Z,55.60
2022-09-20T16:46:32.724Z,55.40
2022-09-20T16:49:00.998Z,55.80
2022-09-20T16:51:33.213Z,55.80
2022-09-20T16:54:05.041Z,56.00
2022-09-20T16:56:34.102Z,56.10
2022-09-20T16:59:04.258Z,55.90
2022-09-20T17:01:31.981Z,56.00
2022-09-20T17:03:59.114Z,56.10
2022-09-20T17:06:27.211Z,56.30
2022-09-20T17:08:58.809Z,56.30
2022-09-20T17:11:26.855Z,56.50
2022-09-20T17:13:54.903Z,56.80
2022-09-20T17:16:27.781Z,56.80
2022-09-20T17:18:58.123Z,56.80
2022-09-20T17:21:25.829Z,56.90
2022-09-20T17:23:57.663Z,57.10
2022-09-20T17:26:33.015Z,57.30
2022-09-20T17:29:01.699Z,57.50
2022-09-20T17:31:34.407Z,57.50
2022-09-20T17:34:02.276Z,57.60
2022-09-20T17:36:31.917Z,57.70
2022-09-20T17:39:04.127Z,57.90
2022-09-20T17:41:32.781Z,58.00
2022-09-20T17:44:02.549Z,58.00
2022-09-20T17:46:31.738Z,58.10
2022-09-20T17:49:01.062Z,58.20
2022-09-20T17:51:48.715Z,58.20
2022-09-20T17:54:15.938Z,58.30
2022-09-20T17:56:44.887Z,58.30
2022-09-20T17:59:12.959Z,58.40
2022-09-20T18:01:40.478Z,58.50
2022-09-20T18:04:08.112Z,58.50
2022-09-20T18:06:55.559Z,58.50
2022-09-20T18:09:25.221Z,58.50
2022-09-20T18:11:53.485Z,58.60
2022-09-20T18:14:25.480Z,58.50
2022-09-20T18:16:52.560Z,58.80
2022-09-20T18:19:21.343Z,58.80
2022-09-20T18:21:48.280Z,58.90
2022-09-20T18:24:14.960Z,58.90
2022-09-20T18:26:42.020Z,59.00
2022-09-20T18:29:13.310Z,59.10
2022-09-20T18:31:47.553Z,59.20
2022-09-20T18:34:21.108Z,59.30
2022-09-20T18:36:55.990Z,59.30
2022-09-20T18:39:33.706Z,59.40
2022-09-20T18:42:03.417Z,59.60
2022-09-20T18:44:34.265Z,59.70
2022-09-20T18:47:07.400Z,59.90
2022-09-20T18:49:34.322Z,60.00
2022-09-20T18:52:01.401Z,60.10
2022-09-20T18:54:33.553Z,60.20
2022-09-20T18:57:00.649Z,60.40
2022-09-20T18:59:28.114Z,60.60
2022-09-20T19:02:12.226Z,61.30
2022-09-20T19:04:46.764Z,61.10
2022-09-20T19:07:28.382Z,61.10
2022-09-20T19:10:37.887Z,61.10
2022-09-20T19:13:30.153Z,61.20
2022-09-20T19:16:16.475Z,61.90
2022-09-20T19:19:09.142Z,61.30
2022-09-20T19:21:42.806Z,61.50
2022-09-20T19:24:28.264Z,61.80
2022-09-20T19:26:55.088Z,62.20
2022-09-20T19:29:25.142Z,62.00
2022-09-20T19:31:55.484Z,61.70
2022-09-20T19:34:23.567Z,61.90
2022-09-20T19:37:12.146Z,61.80
2022-09-20T19:39:41.712Z,62.10
2022-09-20T19:42:26.489Z,61.90
2022-09-20T19:44:59.034Z,62.00
2022-09-20T19:47:45.705Z,62.10
2022-09-20T19:50:33.366Z,62.20
2022-09-20T19:53:04.194Z,62.10
2022-09-20T19:55:32.564Z,62.30
2022-09-20T19:57:59.841Z,62.30
2022-09-20T20:00:27.141Z,62.60
2022-09-20T20:02:54.493Z,62.30
2022-09-20T20:05:25.571Z,62.60
2022-09-20T20:08:05.390Z,63.20
2022-09-20T20:10:41.957Z,63.10
2022-09-20T20:13:37.516Z,63.60
2022-09-20T20:16:13.088Z,64.00
2022-09-20T20:19:15.040Z,65.70
2022-09-20T20:22:02.569Z,66.10
2022-09-20T20:24:48.050Z,66.10
2022-09-20T20:27:14.718Z,67.30
2022-09-20T20:29:41.345Z,65.50
2022-09-20T20:32:08.121Z,66.30
2022-09-20T20:34:36.887Z,67.60
2022-09-20T20:37:07.679Z,66.80
2022-09-20T20:39:34.634Z,66.10
2022-09-20T20:42:03.193Z,65.80
2022-09-20T20:44:31.453Z,65.10
2022-09-20T20:46:58.159Z,64.80
2022-09-20T20:49:24.847Z,64.90
2022-09-20T20:51:51.515Z,64.70
2022-09-20T20:54:18.128Z,64.50
2022-09-20T20:56:44.791Z,65.70
2022-09-20T20:59:11.491Z,65.30
2022-09-20T21:01:42.796Z,65.60
2022-09-20T21:04:10.282Z,64.90
2022-09-20T21:06:40.721Z,64.80
2022-09-20T21:09:08.872Z,64.50
2022-09-20T21:11:38.623Z,64.50
2022-09-20T21:14:07.306Z,64.50
2022-09-20T21:16:36.503Z,64.40
2022-09-20T21:19:04.802Z,64.40
2022-09-20T21:21:36.680Z,64.60
2022-09-20T21:24:08.456Z,65.10
2022-09-20T21:26:36.961Z,65.20
2022-09-20T21:29:10.875Z,65.20
2022-09-20T21:31:39.648Z,65.00
2022-09-20T21:34:07.596Z,65.10
2022-09-20T21:36:35.908Z,65.00
2022-09-20T21:39:02.936Z,65.00
2022-09-20T21:41:31.958Z,65.30
2022-09-20T21:44:00.707Z,65.20
2022-09-20T21:46:32.511Z,64.90
2022-09-20T21:49:01.441Z,65.00
2022-09-20T21:51:31.207Z,65.20
2022-09-20T21:54:00.683Z,65.00
2022-09-20T21:56:31.227Z,64.90
2022-09-20T21:58:58.724Z,64.70
2022-09-20T22:01:27.623Z,65.00
2022-09-20T22:03:58.854Z,64.90
2022-09-20T22:06:30.455Z,65.00
2022-09-20T22:09:01.123Z,65.00
2022-09-20T22:11:38.693Z,65.00
2022-09-20T22:14:06.521Z,65.40
2022-09-20T22:16:35.207Z,67.60
2022-09-20T22:19:03.291Z,67.70
2022-09-20T22:21:32.568Z,66.80
2022-09-20T22:24:01.585Z,66.70
2022-09-20T22:26:36.624Z,67.20
2022-09-20T22:29:03.708Z,67.40
2022-09-20T22:31:32.163Z,67.20
2022-09-20T22:34:02.096Z,66.70
2022-09-20T22:36:34.356Z,66.50
2022-09-20T22:39:01.864Z,66.40
2022-09-20T22:41:28.568Z,66.50
2022-09-20T22:43:55.224Z,66.60
2022-09-20T22:46:23.994Z,66.70
2022-09-20T22:48:51.182Z,66.60
2022-09-20T22:51:19.843Z,66.30
2022-09-20T22:53:47.587Z,67.40
2022-09-20T22:56:17.216Z,66.80
2022-09-20T22:58:46.310Z,66.40
2022-09-20T23:01:23.619Z,66.10
2022-09-20T23:03:56.003Z,66.10
2022-09-20T23:06:40.469Z,65.90
2022-09-20T23:09:09.472Z,65.70
2022-09-20T23:11:36.645Z,65.70
2022-09-20T23:14:05.810Z,65.80
2022-09-20T23:16:35.038Z,65.80
2022-09-20T23:19:03.692Z,65.70
2022-09-20T23:21:30.584Z,65.70
2022-09-20T23:24:05.503Z,65.70
2022-09-20T23:26:33.979Z,67.20
2022-09-20T23:29:03.529Z,67.00
2022-09-20T23:31:31.884Z,66.30
2022-09-20T23:34:02.888Z,66.10
2022-09-20T23:36:31.262Z,65.80
2022-09-20T23:38:58.366Z,66.00
2022-09-20T23:41:26.414Z,65.80
2022-09-20T23:43:53.615Z,65.70
2022-09-20T23:46:22.319Z,65.80
2022-09-20T23:48:50.434Z,65.80
2022-09-20T23:51:22.599Z,65.90
2022-09-20T23:53:50.468Z,66.10
2022-09-20T23:56:17.610Z,66.30
2022-09-20T23:58:45.465Z,65.90
